Time;durP1;ratioP1;P1;durP2;ratioP2;P2;SDS_P1;SDS_P2;PMS_P1;PMS_P2;Temp;Humidity;BMP_temperature;BMP_pressure;BME280_temperature;BME280_humidity;BME280_pressure;Samples;Min_cycle;Max_cycle;Signal;HPM_P1;HPM_P2
2021/12/30 00:00:19;;;;;;;9.02;3.50;;;;;;;28.72;55.26;101315.34;5002454;28;66372;-39
2021/12/30 00:02:50;;;;;;;10.05;4.03;;;;;;;28.76;55.51;101305.84;5010255;28;70241;-39
2021/12/30 00:05:20;;;;;;;9.40;6.53;;;;;;;28.79;55.84;101318.13;5016102;28;64816;-39
2021/12/30 00:07:52;;;;;;;11.90;6.82;;;;;;;28.83;56.34;101325.63;5007842;28;69467;-39
2021/12/30 00:10:22;;;;;;;17.00;8.70;;;;;;;28.88;56.17;101330.44;5012543;28;66058;-39
2021/12/30 00:12:53;;;;;;;23.05;11.57;;;;;;;28.92;56.35;101331.75;5016980;28;69904;-40
2021/12/30 00:15:24;;;;;;;27.95;14.07;;;;;;;28.85;56.33;101330.84;5011185;28;66107;-39
2021/12/30 00:17:55;;;;;;;24.52;13.18;;;;;;;28.84;57.27;101339.97;5017247;28;70472;-40
2021/12/30 00:20:26;;;;;;;29.92;13.88;;;;;;;28.84;57.02;101346.22;5011025;28;66089;-40
2021/12/30 00:22:58;;;;;;;30.00;12.87;;;;;;;28.83;57.61;101344.53;5024080;28;68404;-41
2021/12/30 00:25:28;;;;;;;27.03;12.27;;;;;;;28.92;57.95;101361.44;5010687;28;65452;-42
2021/12/30 00:27:59;;;;;;;24.42;12.98;;;;;;;29.00;57.66;101371.25;5021059;28;70204;-40
2021/12/30 00:30:29;;;;;;;19.95;10.70;;;;;;;28.95;56.11;101374.56;5013781;28;66618;-41
2021/12/30 00:33:00;;;;;;;19.50;10.23;;;;;;;28.90;57.10;101375.13;5019847;28;70013;-43
2021/12/30 00:35:32;;;;;;;27.73;11.15;;;;;;;28.90;57.77;101377.84;5017430;28;65407;-42
2021/12/30 00:38:03;;;;;;;33.33;10.85;;;;;;;28.86;58.01;101373.00;5012132;28;71647;-42
2021/12/30 00:40:34;;;;;;;12.77;9.52;;;;;;;28.91;57.15;101387.59;5013469;28;66496;-42
2021/12/30 00:43:05;;;;;;;14.27;8.60;;;;;;;28.92;57.17;101389.28;5012979;28;69405;-42
2021/12/30 00:45:37;;;;;;;10.47;8.40;;;;;;;28.87;57.27;101383.63;5008227;28;65106;-41
2021/12/30 00:48:08;;;;;;;10.37;8.43;;;;;;;28.99;57.35;101397.44;5016353;28;69383;-41
2021/12/30 00:50:40;;;;;;;13.93;8.13;;;;;;;29.03;56.88;101398.75;5006483;28;66632;-41
2021/12/30 00:53:11;;;;;;;10.48;8.90;;;;;;;28.96;57.20;101395.94;5013311;28;69851;-41
2021/12/30 00:55:44;;;;;;;8.77;7.20;;;;;;;29.11;56.99;101413.97;5015098;28;67061;-41
2021/12/30 00:58:14;;;;;;;8.90;7.35;;;;;;;29.13;56.90;101420.00;5024000;28;70040;-41
2021/12/30 01:00:46;;;;;;;10.88;8.48;;;;;;;29.13;56.76;101410.03;5007352;28;66487;-42
2021/12/30 01:03:16;;;;;;;;;;;;;;;28.85;57.93;101423.47;5009312;28;69361;-41
2021/12/30 01:05:47;;;;;;;11.80;8.73;;;;;;;29.14;56.88;101422.53;5008455;28;67257;-41
2021/12/30 01:08:17;;;;;;;8.18;7.40;;;;;;;29.22;57.25;101424.22;5014695;28;69929;-40
2021/12/30 01:10:48;;;;;;;10.05;7.63;;;;;;;29.25;57.15;101429.25;5011745;28;66270;-41
2021/12/30 01:13:24;;;;;;;9.02;7.63;;;;;;;29.27;56.69;101424.47;5011960;28;70078;-40
2021/12/30 01:21:09;;;;;;;8.02;7.32;;;;;;;29.17;57.05;101391.59;5013599;28;66538;-41
2021/12/30 01:23:43;;;;;;;8.00;7.20;;;;;;;29.35;56.70;101429.75;5011699;28;70693;-41
2021/12/30 01:26:13;;;;;;;8.27;7.45;;;;;;;29.37;57.10;101416.88;5010703;28;66596;-40
2021/12/30 01:28:44;;;;;;;8.20;7.45;;;;;;;29.38;57.00;101423.94;5013622;28;70099;-41
2021/12/30 01:31:15;;;;;;;7.75;6.95;;;;;;;29.39;56.50;101420.22;5012076;28;66593;-41
2021/12/30 01:33:47;;;;;;;7.87;7.07;;;;;;;29.43;57.07;101430.63;5014672;28;69934;-42
2021/12/30 01:36:17;;;;;;;7.10;6.43;;;;;;;29.40;56.87;101421.06;5014882;28;66630;-42
2021/12/30 01:38:49;;;;;;;7.82;7.15;;;;;;;29.48;56.99;101420.06;5013990;28;70072;-41
2021/12/30 01:41:21;;;;;;;6.93;6.32;;;;;;;29.47;56.94;101415.69;5010687;28;66300;-42
2021/12/30 01:43:52;;;;;;;6.70;6.07;;;;;;;29.47;57.07;101410.28;5033985;28;70136;-43
2021/12/30 01:46:22;;;;;;;7.82;7.13;;;;;;;29.52;56.57;101413.22;5013225;28;66573;-43
2021/12/30 01:49:15;;;;;;;6.43;5.85;;;;;;;29.51;57.01;101400.75;5002844;28;70176;-41
2021/12/30 01:51:46;;;;;;;8.75;5.72;;;;;;;29.54;56.40;101412.00;5012777;28;66941;-42
2021/12/30 01:54:17;;;;;;;9.80;6.80;;;;;;;29.54;56.78;101400.34;5016798;28;70008;-43
2021/12/30 01:56:50;;;;;;;6.47;5.97;;;;;;;29.59;56.91;101416.81;5018078;28;66237;-42
2021/12/30 01:59:24;;;;;;;6.63;6.10;;;;;;;29.63;56.52;101415.41;5015779;28;70547;-41
2021/12/30 02:01:58;;;;;;;5.90;5.50;;;;;;;29.62;56.83;101413.72;5018685;28;65515;-42
2021/12/30 02:04:37;;;;;;;6.10;5.60;;;;;;;29.62;56.85;101406.44;5016349;28;70065;-42
2021/12/30 02:07:09;;;;;;;6.18;5.68;;;;;;;29.66;56.25;101403.34;5017797;28;65017;-42
2021/12/30 02:09:39;;;;;;;6.35;5.50;;;;;;;29.67;56.57;101397.75;5016795;28;70416;-44
2021/12/30 02:12:10;;;;;;;5.95;5.53;;;;;;;29.69;56.47;101398.38;5016498;28;66898;-42
2021/12/30 02:14:40;;;;;;;10.10;5.95;;;;;;;29.72;56.25;101399.84;5017497;28;69892;-42
2021/12/30 02:17:11;;;;;;;6.45;5.32;;;;;;;29.73;56.62;101405.06;5018243;28;65756;-42
2021/12/30 02:19:41;;;;;;;6.43;5.80;;;;;;;29.75;56.10;101392.16;5016551;28;70758;-43
2021/12/30 02:22:12;;;;;;;7.00;5.88;;;;;;;29.76;56.29;101393.84;5018129;28;65945;-42
2021/12/30 02:24:49;;;;;;;5.50;5.00;;;;;;;29.63;56.21;101364.03;5014737;28;69890;-42
2021/12/30 02:27:20;;;;;;;6.22;5.82;;;;;;;29.79;56.49;101393.44;5017994;28;65476;-42
2021/12/30 02:29:51;;;;;;;5.33;4.83;;;;;;;29.74;56.51;101385.09;5017612;28;69754;-42
2021/12/30 02:32:22;;;;;;;5.85;5.35;;;;;;;29.86;56.68;101392.63;5012350;28;66521;-42
2021/12/30 02:34:53;;;;;;;6.17;5.67;;;;;;;29.87;56.17;101386.22;5011672;28;69849;-42
2021/12/30 02:37:24;;;;;;;6.57;5.03;;;;;;;29.84;56.63;101388.28;5016919;28;66198;-42
2021/12/30 02:39:54;;;;;;;5.60;5.10;;;;;;;29.88;56.31;101379.75;5012390;28;70120;-43
2021/12/30 02:42:25;;;;;;;5.90;5.40;;;;;;;29.94;56.07;101392.47;4985387;28;66696;-41
2021/12/30 02:44:56;;;;;;;5.95;5.50;;;;;;;29.96;56.29;101401.22;5011612;28;69156;-43
2021/12/30 02:47:26;;;;;;;6.68;5.30;;;;;;;29.97;55.91;101395.59;5014348;28;66294;-41
2021/12/30 02:49:57;;;;;;;6.13;5.53;;;;;;;29.99;56.54;101398.94;5016605;28;70146;-42
2021/12/30 02:52:27;;;;;;;6.20;5.70;;;;;;;30.02;56.21;101403.09;5017752;28;65176;-41
2021/12/30 02:54:58;;;;;;;6.32;5.72;;;;;;;30.04;55.90;101384.81;4996181;28;70587;-42
2021/12/30 02:57:28;;;;;;;5.57;5.10;;;;;;;30.04;56.27;101380.22;5009241;28;66339;-42
2021/12/30 02:59:58;;;;;;;5.95;5.35;;;;;;;30.05;55.83;101371.06;5010241;28;70125;-43
2021/12/30 03:02:29;;;;;;;6.20;5.60;;;;;;;30.08;56.03;101377.13;5014837;28;66236;-43
2021/12/30 03:05:00;;;;;;;5.93;5.47;;;;;;;30.10;55.67;101384.00;5011981;28;69878;-42
2021/12/30 03:07:30;;;;;;;5.90;5.40;;;;;;;30.12;55.56;101371.09;5015268;28;66731;-41
2021/12/30 03:10:01;;;;;;;6.40;5.85;;;;;;;30.11;56.17;101353.19;5028837;28;70665;-42
2021/12/30 03:12:32;;;;;;;8.18;5.90;;;;;;;30.15;55.76;101362.56;5016590;28;65891;-42
2021/12/30 03:15:02;;;;;;;6.07;5.40;;;;;;;30.18;55.63;101359.47;5015405;28;69165;-43
2021/12/30 03:17:32;;;;;;;6.03;5.53;;;;;;;30.21;55.83;101358.22;5003680;28;66474;-41
2021/12/30 03:20:08;;;;;;;6.75;5.65;;;;;;;30.23;55.61;101353.47;5010925;28;69939;-42
2021/12/30 03:22:40;;;;;;;5.97;5.40;;;;;;;30.24;55.74;101353.25;5006063;28;65777;-42
2021/12/30 03:25:12;;;;;;;5.87;5.40;;;;;;;30.24;56.14;101353.25;5017482;28;69331;-42
2021/12/30 03:27:44;;;;;;;6.05;5.55;;;;;;;30.30;55.71;101339.94;5009667;28;66631;-41
2021/12/30 03:30:16;;;;;;;6.00;5.50;;;;;;;30.31;55.85;101347.03;5012819;28;69204;-41
2021/12/30 03:32:46;;;;;;;6.60;5.82;;;;;;;30.34;55.87;101346.59;5015010;28;66488;-43
2021/12/30 03:35:18;;;;;;;5.88;5.43;;;;;;;30.35;55.85;101337.47;5017263;28;71014;-42
2021/12/30 03:37:48;;;;;;;7.15;5.50;;;;;;;30.36;55.33;101342.66;5006921;28;65120;-42
2021/12/30 03:40:19;;;;;;;6.53;5.90;;;;;;;30.38;55.21;101331.63;5012874;28;69467;-43
2021/12/30 03:42:50;;;;;;;6.00;5.35;;;;;;;30.42;55.76;101338.28;5014897;28;65425;-41
2021/12/30 03:45:21;;;;;;;5.40;5.00;;;;;;;30.45;55.69;101332.47;5016183;28;70105;-42
2021/12/30 03:47:52;;;;;;;5.72;5.32;;;;;;;30.46;55.75;101321.44;5013685;28;65910;-41
2021/12/30 03:50:26;;;;;;;5.93;5.53;;;;;;;30.50;55.36;101329.97;5008458;28;70654;-41
2021/12/30 03:53:00;;;;;;;6.15;5.57;;;;;;;30.53;55.18;101332.25;5026900;28;65477;-42
2021/12/30 03:55:31;;;;;;;6.80;5.50;;;;;;;30.53;55.52;101334.97;5005414;28;70257;-43
2021/12/30 03:58:02;;;;;;;6.05;5.55;;;;;;;30.53;55.15;101317.91;5009658;28;66140;-42
2021/12/30 04:00:34;;;;;;;6.57;5.82;;;;;;;30.59;55.15;101325.19;5011276;28;70209;-42
2021/12/30 04:03:04;;;;;;;;;;;;;;;30.33;55.79;101313.31;5014439;28;65582;-44
2021/12/30 04:05:35;;;;;;;6.72;6.03;;;;;;;30.61;55.10;101310.41;5014133;28;70233;-43
2021/12/30 04:08:07;;;;;;;6.10;5.70;;;;;;;30.66;55.36;101301.66;5017044;28;65078;-43
2021/12/30 04:10:37;;;;;;;7.10;6.50;;;;;;;30.66;55.58;101290.81;5016182;28;70601;-44
2021/12/30 04:13:08;;;;;;;8.65;6.90;;;;;;;30.71;55.15;101283.75;5016318;28;66492;-43
2021/12/30 04:15:39;;;;;;;6.72;5.90;;;;;;;30.74;54.86;101279.78;5014231;28;70811;-42
2021/12/30 04:18:09;;;;;;;10.85;6.38;;;;;;;30.72;54.96;101269.16;5016932;28;66448;-42
2021/12/30 04:20:39;;;;;;;6.05;5.63;;;;;;;30.78;55.01;101272.06;5017018;28;69208;-42
2021/12/30 04:23:11;;;;;;;6.50;6.00;;;;;;;30.79;54.96;101262.91;5016799;28;66732;-43
2021/12/30 04:25:41;;;;;;;6.38;5.88;;;;;;;30.82;55.30;101265.22;5015281;28;69351;-43
2021/12/30 04:28:12;;;;;;;10.15;6.35;;;;;;;30.85;55.34;101254.78;5009417;28;66489;-42
2021/12/30 04:30:43;;;;;;;6.90;6.20;;;;;;;30.89;55.31;101247.06;5014786;28;70035;-43
2021/12/30 04:33:14;;;;;;;7.03;6.43;;;;;;;30.90;55.05;101246.06;5029868;28;65861;-43
2021/12/30 04:35:44;;;;;;;6.00;5.60;;;;;;;30.93;55.18;101242.91;5015350;28;69271;-42
2021/12/30 04:38:15;;;;;;;7.20;6.10;;;;;;;30.94;54.88;101233.72;5011141;28;65958;-43
2021/12/30 04:40:45;;;;;;;6.40;5.90;;;;;;;30.96;55.21;101231.66;5010794;28;70511;-42
2021/12/30 04:43:16;;;;;;;7.22;6.53;;;;;;;30.97;55.00;101216.22;5008740;28;65446;-43
2021/12/30 04:45:47;;;;;;;6.40;5.80;;;;;;;30.98;55.02;101218.72;5013258;28;70234;-43
2021/12/30 04:48:19;;;;;;;8.40;6.40;;;;;;;31.02;54.64;101225.38;5013030;28;65559;-43
2021/12/30 04:50:49;;;;;;;6.90;6.30;;;;;;;31.02;55.07;101219.13;5015757;28;70312;-43
2021/12/30 04:53:20;;;;;;;6.82;6.13;;;;;;;31.08;54.68;101219.09;5013720;28;65474;-43
2021/12/30 04:55:51;;;;;;;7.32;6.63;;;;;;;31.10;54.87;101217.00;5009644;28;69955;-42
2021/12/30 04:58:21;;;;;;;7.13;6.43;;;;;;;31.07;54.95;101203.88;5003128;28;66339;-43
2021/12/30 05:00:52;;;;;;;6.82;6.28;;;;;;;31.15;54.62;101203.66;5014222;28;69946;-42
2021/12/30 05:03:28;;;;;;;9.30;6.45;;;;;;;31.18;54.71;101205.09;5009153;28;65936;-43
2021/12/30 05:05:58;;;;;;;6.88;6.38;;;;;;;31.16;54.61;101199.88;5020034;28;69085;-44
2021/12/30 05:08:29;;;;;;;7.85;6.20;;;;;;;31.23;54.66;101188.19;5014618;28;66861;-45
2021/12/30 05:10:59;;;;;;;7.00;6.40;;;;;;;31.26;54.59;101177.75;5015964;28;69533;-45
2021/12/30 05:13:30;;;;;;;7.90;6.72;;;;;;;31.26;54.56;101168.78;5004573;28;65399;-42
2021/12/30 05:16:00;;;;;;;7.07;6.38;;;;;;;31.30;54.63;101172.72;4988507;28;69609;-45
2021/12/30 05:18:32;;;;;;;6.32;5.82;;;;;;;31.29;54.60;101160.25;5018632;28;66701;-42
2021/12/30 05:21:03;;;;;;;;;;;;;;;31.11;55.00;101161.75;5016519;28;69647;-41
2021/12/30 05:23:35;;;;;;;6.30;5.80;;;;;;;31.37;54.70;101151.84;5011628;28;65856;-42
2021/12/30 05:26:06;;;;;;;6.17;5.67;;;;;;;31.37;54.70;101146.44;5013661;28;70086;-43
2021/12/30 05:28:36;;;;;;;6.78;6.07;;;;;;;31.41;54.52;101136.00;5016297;28;66220;-42
2021/12/30 05:31:07;;;;;;;6.57;6.03;;;;;;;31.47;54.22;101144.09;5010296;28;70238;-43
2021/12/30 05:33:38;;;;;;;6.70;5.95;;;;;;;31.49;54.53;101139.28;5015929;28;66028;-42
2021/12/30 05:36:08;;;;;;;7.10;6.50;;;;;;;31.52;54.69;101132.59;5017418;28;69238;-42
2021/12/30 05:38:39;;;;;;;6.05;5.55;;;;;;;31.43;54.80;101107.63;5016757;28;66127;-43
2021/12/30 05:41:09;;;;;;;7.63;6.72;;;;;;;31.57;54.47;101120.03;5007929;28;69608;-43
2021/12/30 05:43:40;;;;;;;7.15;6.00;;;;;;;31.60;54.20;101119.59;5018421;28;66234;-43
2021/12/30 05:46:10;;;;;;;6.28;5.88;;;;;;;31.58;54.64;101116.28;5006498;28;70541;-43
2021/12/30 05:48:41;;;;;;;6.75;6.15;;;;;;;31.61;54.66;101110.41;5008297;28;66035;-42
2021/12/30 05:51:11;;;;;;;6.38;5.88;;;;;;;31.65;54.56;101115.38;5015412;28;69501;-42
2021/12/30 05:53:42;;;;;;;6.43;5.93;;;;;;;31.65;54.45;101115.38;5010155;28;66165;-43
2021/12/30 05:56:12;;;;;;;6.18;5.68;;;;;;;31.66;54.70;101106.22;5018535;28;69612;-43
2021/12/30 05:58:43;;;;;;;6.93;5.95;;;;;;;31.63;54.58;101090.41;5017249;28;65855;-43
2021/12/30 06:01:13;;;;;;;6.57;5.68;;;;;;;31.70;54.32;101093.88;5018108;28;69295;-43
2021/12/30 06:03:44;;;;;;;6.10;5.70;;;;;;;31.70;54.24;101096.59;5017432;28;66182;-44
2021/12/30 06:06:14;;;;;;;7.82;5.90;;;;;;;31.72;54.51;101089.06;5017928;28;70193;-43
2021/12/30 06:08:45;;;;;;;6.32;5.55;;;;;;;31.73;54.44;101086.16;5010513;28;66283;-44
2021/12/30 06:11:15;;;;;;;9.75;4.70;;;;;;;31.57;54.75;101049.56;5015573;28;69705;-43
2021/12/30 06:13:46;;;;;;;5.88;5.40;;;;;;;31.76;54.73;101079.41;5011960;28;66232;-42
2021/12/30 06:16:17;;;;;;;5.75;5.28;;;;;;;31.78;54.73;101082.75;5013195;28;70361;-43
2021/12/30 06:18:48;;;;;;;9.25;5.50;;;;;;;31.75;54.37;101069.63;5015618;28;65776;-42
2021/12/30 06:21:18;;;;;;;5.75;5.05;;;;;;;31.79;54.29;101068.97;5013967;28;69139;-43
2021/12/30 06:23:50;;;;;;;5.72;4.28;;;;;;;31.79;54.59;101062.72;5000551;28;65966;-44
2021/12/30 06:26:20;;;;;;;5.53;5.13;;;;;;;31.84;54.26;101054.72;5016737;28;70147;-43
2021/12/30 06:28:50;;;;;;;5.45;4.95;;;;;;;31.85;54.36;101059.13;5014185;28;65977;-43
2021/12/30 06:31:21;;;;;;;6.90;4.65;;;;;;;31.88;54.67;101055.97;5007608;28;69491;-43
2021/12/30 06:33:51;;;;;;;4.82;4.50;;;;;;;31.89;54.09;101049.47;5000659;28;65640;-43
2021/12/30 06:36:22;;;;;;;5.72;5.32;;;;;;;31.92;54.45;101051.75;5018883;28;70324;-44
2021/12/30 06:38:52;;;;;;;4.95;4.55;;;;;;;31.93;54.30;101045.31;5016858;28;65063;-43
2021/12/30 06:41:22;;;;;;;6.85;5.00;;;;;;;31.95;54.38;101045.88;5016061;28;69919;-42
2021/12/30 06:43:53;;;;;;;4.85;4.45;;;;;;;31.97;54.07;101032.94;5015447;28;66159;-43
2021/12/30 06:46:23;;;;;;;5.07;4.68;;;;;;;32.01;53.97;101038.72;5016718;28;69848;-43
2021/12/30 06:48:54;;;;;;;4.78;4.28;;;;;;;32.02;54.21;101035.81;5011002;28;65739;-43
2021/12/30 06:51:27;;;;;;;7.40;4.97;;;;;;;32.05;54.07;101029.94;5013834;28;69631;-43
2021/12/30 06:53:57;;;;;;;5.25;4.75;;;;;;;32.06;54.17;101019.91;5009237;28;65696;-43
2021/12/30 06:56:28;;;;;;;5.03;4.53;;;;;;;32.11;54.29;101021.94;5011658;28;69305;-42
2021/12/30 06:58:58;;;;;;;5.15;4.68;;;;;;;32.08;54.53;101014.25;5010601;28;66088;-42
2021/12/30 07:01:30;;;;;;;6.15;4.53;;;;;;;32.16;54.20;101020.22;5013154;28;70197;-43
2021/12/30 07:04:01;;;;;;;5.18;4.70;;;;;;;32.18;53.96;101017.25;5013094;28;65980;-43
2021/12/30 07:06:31;;;;;;;4.53;4.22;;;;;;;32.20;54.17;101015.16;5015940;28;70849;-43
2021/12/30 07:09:01;;;;;;;4.40;4.10;;;;;;;32.22;53.92;101007.63;5016568;28;66613;-43
2021/12/30 07:11:32;;;;;;;4.53;4.22;;;;;;;32.26;54.07;101014.25;5016391;28;70077;-42
2021/12/30 07:14:03;;;;;;;6.43;3.87;;;;;;;32.27;53.94;101010.50;5010667;28;66057;-43
2021/12/30 07:16:33;;;;;;;4.22;3.92;;;;;;;32.24;53.56;100998.19;4993449;28;69760;-44
2021/12/30 07:19:04;;;;;;;4.53;4.22;;;;;;;32.33;53.91;101009.56;5005400;28;65681;-43
2021/12/30 07:21:34;;;;;;;4.38;4.03;;;;;;;32.33;53.72;101001.44;5014111;28;69885;-43
2021/12/30 07:24:06;;;;;;;3.78;3.47;;;;;;;32.37;54.02;101008.06;5010075;28;66126;-43
2021/12/30 07:26:37;;;;;;;3.20;3.00;;;;;;;32.39;53.63;101000.53;5012602;28;70106;-43
2021/12/30 07:29:07;;;;;;;4.20;3.90;;;;;;;32.43;53.68;101003.59;5013287;28;66229;-43
2021/12/30 07:31:38;;;;;;;3.83;3.50;;;;;;;32.44;53.85;100989.81;5010304;28;69503;-43
2021/12/30 07:34:08;;;;;;;4.38;3.97;;;;;;;32.48;53.46;100993.78;5014330;28;66146;-43
2021/12/30 07:36:39;;;;;;;4.55;4.13;;;;;;;32.45;53.55;100982.47;5010726;28;69340;-43
2021/12/30 07:39:09;;;;;;;3.95;3.55;;;;;;;32.54;53.57;100991.16;5016011;28;65815;-43
2021/12/30 07:41:39;;;;;;;3.50;3.20;;;;;;;32.56;53.58;100992.59;5014867;28;69921;-47
2021/12/30 07:44:10;;;;;;;3.72;3.42;;;;;;;32.58;53.29;101004.06;5008818;28;66404;-43
2021/12/30 07:46:40;;;;;;;4.90;3.92;;;;;;;32.62;53.26;101002.53;5012442;28;69808;-43
2021/12/30 07:49:11;;;;;;;4.07;3.33;;;;;;;32.61;53.15;101000.06;4997908;28;65580;-43
2021/12/30 07:51:41;;;;;;;5.18;3.40;;;;;;;32.67;53.31;100997.25;5006127;28;70012;-43
2021/12/30 07:54:12;;;;;;;3.10;2.90;;;;;;;32.71;53.17;100986.78;5015436;28;65198;-43
2021/12/30 07:56:42;;;;;;;6.55;3.90;;;;;;;32.69;53.25;100975.31;5012501;28;70552;-44
2021/12/30 07:59:12;;;;;;;3.95;3.65;;;;;;;32.75;53.23;100979.81;5013094;28;66743;-43
2021/12/30 08:01:43;;;;;;;3.33;3.13;;;;;;;32.78;53.29;100992.94;5010191;28;70006;-42
2021/12/30 08:04:14;;;;;;;3.85;3.55;;;;;;;32.82;53.21;100982.44;5014045;28;65616;-45
2021/12/30 08:06:44;;;;;;;3.38;3.03;;;;;;;32.80;53.15;100990.00;5013936;28;69840;-42
2021/12/30 08:09:14;;;;;;;3.17;2.97;;;;;;;32.87;53.01;101005.13;5015368;28;65522;-43
2021/12/30 08:11:45;;;;;;;2.65;2.45;;;;;;;32.90;52.77;100999.25;5015020;28;70312;-42
2021/12/30 08:14:15;;;;;;;3.17;2.97;;;;;;;32.93;52.87;101004.22;5006628;28;66471;-43
2021/12/30 08:16:46;;;;;;;2.80;2.60;;;;;;;32.96;53.13;100997.50;5009645;28;69818;-43
2021/12/30 08:19:16;;;;;;;3.45;3.20;;;;;;;32.94;52.72;101000.44;5012780;28;66549;-43
2021/12/30 08:21:48;;;;;;;3.78;3.30;;;;;;;33.01;52.74;101004.97;5027191;28;69051;-42
2021/12/30 08:24:30;;;;;;;3.45;3.15;;;;;;;33.06;52.55;101008.66;5012559;28;66334;-43
2021/12/30 08:27:27;;;;;;;3.03;2.78;;;;;;;33.07;52.73;100999.44;5007087;28;70242;-43
2021/12/30 08:30:08;;;;;;;3.40;3.10;;;;;;;33.02;52.58;100974.84;5017958;28;65584;-43
2021/12/30 08:33:03;;;;;;;3.17;2.38;;;;;;;33.15;52.70;101001.84;5019275;28;69475;-43
2021/12/30 08:36:05;;;;;;;2.92;2.55;;;;;;;33.02;52.40;100976.75;5011329;28;66120;-44
2021/12/30 08:38:42;;;;;;;3.28;2.97;;;;;;;33.23;52.35;101003.34;5012586;28;69900;-43
2021/12/30 08:41:13;;;;;;;3.13;2.92;;;;;;;33.23;52.28;100997.94;5015799;28;66587;-44
2021/12/30 08:43:43;;;;;;;3.33;2.55;;;;;;;33.29;52.20;101007.88;5012262;28;70423;-42
2021/12/30 08:46:13;;;;;;;2.90;2.70;;;;;;;33.31;52.21;101007.63;5018547;28;66078;-43
2021/12/30 08:48:44;;;;;;;2.92;2.72;;;;;;;33.33;52.11;101003.63;5013672;28;70469;-43
2021/12/30 08:51:15;;;;;;;2.58;2.38;;;;;;;33.35;52.17;101006.13;5017977;28;65313;-43
2021/12/30 08:53:45;;;;;;;2.50;2.30;;;;;;;33.34;52.25;100996.28;5019276;28;70430;-43
2021/12/30 08:56:17;;;;;;;2.95;2.75;;;;;;;33.37;52.15;101007.50;5019655;28;65456;-43
2021/12/30 08:58:48;;;;;;;2.70;2.50;;;;;;;33.38;51.89;101005.66;5015017;28;70219;-42
2021/12/30 09:01:18;;;;;;;;;;;;;;;33.21;52.07;101010.94;5019163;28;66697;-43
2021/12/30 09:03:49;;;;;;;3.65;2.00;;;;;;;33.40;51.95;101019.00;5001260;28;69568;-42
2021/12/30 09:06:20;;;;;;;2.58;2.40;;;;;;;33.42;51.83;101014.16;5017672;28;66535;-43
2021/12/30 09:08:50;;;;;;;2.42;2.20;;;;;;;33.45;52.02;101016.41;5017982;28;70541;-43
2021/12/30 09:11:21;;;;;;;3.25;3.05;;;;;;;33.46;51.68;101018.06;5013585;28;65543;-43
2021/12/30 09:13:52;;;;;;;2.97;2.50;;;;;;;33.49;51.66;101013.00;5013886;28;70511;-42
2021/12/30 09:16:23;;;;;;;2.60;2.40;;;;;;;33.40;51.55;100997.25;5014199;28;65747;-43
2021/12/30 09:18:53;;;;;;;2.90;2.70;;;;;;;33.50;51.53;101021.97;5004102;28;68949;-43
2021/12/30 09:21:24;;;;;;;5.43;2.47;;;;;;;33.54;51.47;101025.91;5008826;28;65524;-43
2021/12/30 09:23:55;;;;;;;5.17;2.30;;;;;;;33.54;51.54;101031.34;5004550;28;70359;-42
2021/12/30 09:26:26;;;;;;;2.70;2.50;;;;;;;33.54;51.43;101036.78;5002861;28;66154;-42
2021/12/30 09:28:56;;;;;;;2.95;2.20;;;;;;;33.56;51.20;101045.53;5009104;28;70095;-43
2021/12/30 09:31:30;;;;;;;2.42;2.22;;;;;;;33.56;51.30;101040.91;5008846;28;66061;-43
2021/12/30 09:34:01;;;;;;;2.90;2.60;;;;;;;33.57;51.40;101041.75;5008851;28;69178;-43
2021/12/30 09:36:31;;;;;;;2.95;2.42;;;;;;;33.57;51.25;101041.75;5023366;28;66070;-44
2021/12/30 09:39:04;;;;;;;3.20;2.90;;;;;;;33.47;51.19;101028.72;5010011;28;69522;-43
2021/12/30 09:41:37;;;;;;;2.78;2.58;;;;;;;33.56;51.16;101050.97;5008756;28;66914;-44
2021/12/30 09:44:10;;;;;;;4.10;2.97;;;;;;;33.57;51.04;101053.47;5002668;28;69563;-44
2021/12/30 09:46:42;;;;;;;3.10;2.78;;;;;;;33.30;50.97;101016.88;4999782;28;66185;-43
2021/12/30 09:49:18;;;;;;;2.95;2.75;;;;;;;33.57;51.16;101058.06;5008011;28;70231;-43
2021/12/30 09:51:49;;;;;;;4.53;2.75;;;;;;;33.56;51.15;101061.84;5005390;28;66014;-43
2021/12/30 09:54:20;;;;;;;4.18;3.70;;;;;;;33.51;51.09;101053.53;5007007;28;70259;-42
2021/12/30 09:56:52;;;;;;;3.43;3.10;;;;;;;33.53;51.19;101057.72;5005523;28;67046;-43
2021/12/30 09:59:26;;;;;;;4.82;2.90;;;;;;;33.55;51.21;101062.94;5010982;28;69530;-43
2021/12/30 10:01:57;;;;;;;3.00;2.80;;;;;;;33.53;51.21;101073.22;5006543;28;67312;-42
2021/12/30 10:04:33;;;;;;;6.57;3.20;;;;;;;33.35;51.60;101045.00;5012088;28;70868;-44
2021/12/30 10:07:17;;;;;;;3.30;3.00;;;;;;;33.51;51.17;101070.69;5014167;28;66518;-43
2021/12/30 10:09:53;;;;;;;4.82;3.45;;;;;;;33.50;51.12;101070.94;5005532;28;70112;-43
2021/12/30 10:12:41;;;;;;;3.25;2.95;;;;;;;33.46;51.11;101078.72;5006627;28;65811;-43
2021/12/30 10:15:12;;;;;;;4.38;3.30;;;;;;;33.46;51.27;101078.72;5007817;28;70180;-43
2021/12/30 10:17:43;;;;;;;3.35;2.95;;;;;;;33.44;51.15;101069.97;5013202;28;66414;-43
2021/12/30 10:20:15;;;;;;;4.47;3.25;;;;;;;33.26;50.99;101051.00;5014195;28;69395;-43
2021/12/30 10:22:47;;;;;;;3.40;3.10;;;;;;;33.41;51.42;101070.44;5015984;28;66292;-43
2021/12/30 10:25:35;;;;;;;4.03;3.63;;;;;;;33.35;51.11;101083.06;5014477;28;70059;-44
2021/12/30 10:28:30;;;;;;;5.75;3.30;;;;;;;33.33;51.17;101087.09;5012656;28;66538;-43
2021/12/30 10:31:02;;;;;;;3.00;2.70;;;;;;;33.36;51.58;101095.59;5014615;28;70072;-43
2021/12/30 10:33:37;;;;;;;3.97;3.47;;;;;;;33.35;51.73;101098.56;5018851;28;65727;-42
2021/12/30 10:36:30;;;;;;;9.85;3.33;;;;;;;33.12;52.11;101072.94;5011345;28;70015;-43
2021/12/30 10:39:18;;;;;;;;;;;;;;;33.12;52.14;101102.00;5009967;28;66179;-43
2021/12/30 10:42:16;;;;;;;4.10;3.13;;;;;;;33.30;52.18;101112.84;5001529;28;70774;-44
2021/12/30 10:45:03;;;;;;;7.57;4.68;;;;;;;33.29;50.12;101111.19;5013324;28;66083;-44
2021/12/30 10:47:54;;;;;;;6.72;4.97;;;;;;;33.04;49.02;101088.75;5014449;28;69490;-44
2021/12/30 10:50:25;;;;;;;13.23;6.20;;;;;;;33.28;49.16;101108.69;5013945;28;66283;-44
2021/12/30 10:52:56;;;;;;;10.83;6.33;;;;;;;33.14;48.57;101097.19;5019936;28;68987;-43
2021/12/30 10:55:27;;;;;;;17.88;7.05;;;;;;;33.26;48.62;101122.50;5013534;28;66701;-43
2021/12/30 10:57:57;;;;;;;15.68;6.78;;;;;;;33.24;47.98;101119.22;5014911;28;70333;-42
2021/12/30 11:00:30;;;;;;;19.10;7.50;;;;;;;33.25;47.87;101126.31;5015606;28;66288;-44
2021/12/30 11:03:27;;;;;;;7.65;6.78;;;;;;;33.09;46.99;101107.91;5017695;28;69959;-43
2021/12/30 11:06:11;;;;;;;13.45;8.05;;;;;;;33.17;47.01;101126.63;5007776;28;66678;-44
2021/12/30 11:08:47;;;;;;;12.07;7.90;;;;;;;33.19;47.72;101132.66;5013252;28;43345;-43
2021/12/30 11:11:28;;;;;;;34.17;9.63;;;;;;;33.10;47.29;101123.19;5013255;28;66398;-43
2021/12/30 11:14:04;;;;;;;18.27;9.37;;;;;;;33.16;47.98;101133.13;5017226;28;69936;-43
2021/12/30 11:17:05;;;;;;;16.98;9.18;;;;;;;32.98;47.03;101114.91;5008398;28;66365;-42
2021/12/30 11:19:40;;;;;;;26.15;10.25;;;;;;;33.06;47.56;101124.69;5019983;28;70729;-43
2021/12/30 11:22:14;;;;;;;17.13;9.55;;;;;;;32.94;47.46;101111.84;5017346;28;65411;-49
2021/12/30 11:24:46;;;;;;;17.60;9.48;;;;;;;33.17;47.71;101155.69;5017571;28;70138;-44
2021/12/30 11:27:18;;;;;;;19.60;9.65;;;;;;;33.16;47.42;101149.44;5018799;28;66616;-42
2021/12/30 11:29:51;;;;;;;;;;;;;;;32.93;47.51;101159.09;5019909;28;69959;-44
2021/12/30 11:32:26;;;;;;;15.05;9.32;;;;;;;32.93;47.85;101134.66;5015360;28;67212;-43
2021/12/30 11:34:57;;;;;;;24.83;10.52;;;;;;;33.08;47.39;101163.34;5014436;28;70399;-42
2021/12/30 11:37:27;;;;;;;13.43;9.40;;;;;;;33.09;47.84;101170.44;5017006;28;66116;-42
2021/12/30 11:40:08;;;;;;;13.40;8.50;;;;;;;33.03;47.91;101171.34;5017040;28;70268;-43
2021/12/30 11:42:47;;;;;;;17.65;8.65;;;;;;;32.94;47.68;101152.59;5016920;28;65966;-43
2021/12/30 11:45:43;;;;;;;13.52;8.65;;;;;;;33.05;47.69;101185.53;5017865;28;69795;-44
2021/12/30 11:48:26;;;;;;;10.73;7.90;;;;;;;33.03;47.80;101198.53;5015221;28;66006;-43
2021/12/30 11:51:08;;;;;;;9.35;6.70;;;;;;;33.02;47.98;101196.88;5007846;28;69790;-43
2021/12/30 11:53:39;;;;;;;17.02;7.93;;;;;;;32.94;48.52;101187.09;5012528;28;65560;-44